sensor_id;sensor_type;location;lat;lon;timestamp;temperature;humidity
39219;DHT22;24934;52.752;6.964;2022-11-04T00:01:48;11.00;99.90
39219;DHT22;24934;52.752;6.964;2022-11-04T00:04:16;11.00;99.90
39219;DHT22;24934;52.752;6.964;2022-11-04T00:06:42;11.00;99.90
39219;DHT22;24934;52.752;6.964;2022-11-04T00:09:11;10.90;99.90
39219;DHT22;24934;52.752;6.964;2022-11-04T00:11:37;10.90;99.90
39219;DHT22;24934;52.752;6.964;2022-11-04T00:14:21;10.80;99.90
39219;DHT22;24934;52.752;6.964;2022-11-04T00:16:47;10.80;99.90
39219;DHT22;24934;52.752;6.964;2022-11-04T00:19:31;10.70;99.90
39219;DHT22;24934;52.752;6.964;2022-11-04T00:22:17;10.70;99.90
39219;DHT22;24934;52.752;6.964;2022-11-04T00:25:01;10.60;99.90
39219;DHT22;24934;52.752;6.964;2022-11-04T00:27:45;10.50;99.90
39219;DHT22;24934;52.752;6.964;2022-11-04T00:30:29;10.40;99.90
39219;DHT22;24934;52.752;6.964;2022-11-04T00:32:55;10.40;99.90
39219;DHT22;24934;52.752;6.964;2022-11-04T00:35:39;10.40;99.90
39219;DHT22;24934;52.752;6.964;2022-11-04T00:38:05;10.30;99.90
39219;DHT22;24934;52.752;6.964;2022-11-04T00:40:30;10.30;99.90
39219;DHT22;24934;52.752;6.964;2022-11-04T00:42:56;10.30;99.90
39219;DHT22;24934;52.752;6.964;2022-11-04T00:45:21;10.30;99.90
39219;DHT22;24934;52.752;6.964;2022-11-04T00:47:47;10.30;99.90
39219;DHT22;24934;52.752;6.964;2022-11-04T00:50:12;10.20;99.90
39219;DHT22;24934;52.752;6.964;2022-11-04T00:52:38;10.20;99.90
39219;DHT22;24934;52.752;6.964;2022-11-04T00:55:04;10.20;99.90
39219;DHT22;24934;52.752;6.964;2022-11-04T00:57:30;10.20;99.90
39219;DHT22;24934;52.752;6.964;2022-11-04T00:59:56;10.20;99.90
39219;DHT22;24934;52.752;6.964;2022-11-04T01:02:21;10.20;99.90
39219;DHT22;24934;52.752;6.964;2022-11-04T01:04:47;10.10;99.90
39219;DHT22;24934;52.752;6.964;2022-11-04T01:07:13;10.10;99.90
39219;DHT22;24934;52.752;6.964;2022-11-04T01:09:41;10.00;99.90
39219;DHT22;24934;52.752;6.964;2022-11-04T01:12:07;10.00;99.90
39219;DHT22;24934;52.752;6.964;2022-11-04T01:14:36;9.90;99.90
39219;DHT22;24934;52.752;6.964;2022-11-04T01:17:02;9.90;99.90
39219;DHT22;24934;52.752;6.964;2022-11-04T01:19:27;9.80;99.90
39219;DHT22;24934;52.752;6.964;2022-11-04T01:21:53;9.80;99.90
39219;DHT22;24934;52.752;6.964;2022-11-04T01:24:20;9.80;99.90
39219;DHT22;24934;52.752;6.964;2022-11-04T01:26:45;9.80;99.90
39219;DHT22;24934;52.752;6.964;2022-11-04T01:29:11;9.80;99.90
39219;DHT22;24934;52.752;6.964;2022-11-04T01:31:36;9.70;99.90
39219;DHT22;24934;52.752;6.964;2022-11-04T01:34:02;9.80;99.90
39219;DHT22;24934;52.752;6.964;2022-11-04T01:36:28;9.70;99.90
39219;DHT22;24934;52.752;6.964;2022-11-04T01:38:54;9.70;99.90
39219;DHT22;24934;52.752;6.964;2022-11-04T01:41:29;9.70;99.90
39219;DHT22;24934;52.752;6.964;2022-11-04T01:44:00;9.70;99.90
39219;DHT22;24934;52.752;6.964;2022-11-04T01:49:30;9.70;99.90
39219;DHT22;24934;52.752;6.964;2022-11-04T01:52:07;9.70;99.90
39219;DHT22;24934;52.752;6.964;2022-11-04T01:54:34;9.80;99.90
39219;DHT22;24934;52.752;6.964;2022-11-04T01:57:05;9.80;99.90
39219;DHT22;24934;52.752;6.964;2022-11-04T01:59:35;9.90;99.90
39219;DHT22;24934;52.752;6.964;2022-11-04T02:02:01;9.90;99.90
39219;DHT22;24934;52.752;6.964;2022-11-04T02:04:28;9.90;99.90
39219;DHT22;24934;52.752;6.964;2022-11-04T02:07:06;10.00;99.90
39219;DHT22;24934;52.752;6.964;2022-11-04T02:09:34;10.10;99.90
39219;DHT22;24934;52.752;6.964;2022-11-04T02:12:00;10.10;99.90
39219;DHT22;24934;52.752;6.964;2022-11-04T02:14:47;10.10;99.90
39219;DHT22;24934;52.752;6.964;2022-11-04T02:17:24;10.10;99.90
39219;DHT22;24934;52.752;6.964;2022-11-04T02:20:19;10.10;99.90
39219;DHT22;24934;52.752;6.964;2022-11-04T02:31:27;10.20;99.90
39219;DHT22;24934;52.752;6.964;2022-11-04T02:34:04;10.20;99.90
39219;DHT22;24934;52.752;6.964;2022-11-04T02:36:45;10.20;99.90
39219;DHT22;24934;52.752;6.964;2022-11-04T02:39:41;10.20;99.90
39219;DHT22;24934;52.752;6.964;2022-11-04T02:42:30;10.20;99.90
39219;DHT22;24934;52.752;6.964;2022-11-04T02:45:12;10.20;99.90
39219;DHT22;24934;52.752;6.964;2022-11-04T02:47:44;10.20;99.90
39219;DHT22;24934;52.752;6.964;2022-11-04T02:53:05;10.20;99.90
39219;DHT22;24934;52.752;6.964;2022-11-04T02:55:39;10.20;99.90
39219;DHT22;24934;52.752;6.964;2022-11-04T02:58:11;10.20;99.90
39219;DHT22;24934;52.752;6.964;2022-11-04T03:00:40;10.20;99.90
39219;DHT22;24934;52.752;6.964;2022-11-04T03:03:11;10.10;99.90
39219;DHT22;24934;52.752;6.964;2022-11-04T03:05:40;10.10;99.90
39219;DHT22;24934;52.752;6.964;2022-11-04T03:08:55;10.10;99.90
39219;DHT22;24934;52.752;6.964;2022-11-04T03:11:03;10.00;99.90
39219;DHT22;24934;52.752;6.964;2022-11-04T03:16:12;10.00;99.90
39219;DHT22;24934;52.752;6.964;2022-11-04T03:18:53;10.00;99.90
39219;DHT22;24934;52.752;6.964;2022-11-04T03:21:23;10.00;99.90
39219;DHT22;24934;52.752;6.964;2022-11-04T03:23:50;10.00;99.90
39219;DHT22;24934;52.752;6.964;2022-11-04T03:26:28;10.00;99.90
39219;DHT22;24934;52.752;6.964;2022-11-04T03:29:06;10.00;99.90
39219;DHT22;24934;52.752;6.964;2022-11-04T03:31:52;9.90;99.90
39219;DHT22;24934;52.752;6.964;2022-11-04T03:34:19;9.90;99.90
39219;DHT22;24934;52.752;6.964;2022-11-04T03:36:45;9.90;99.90
39219;DHT22;24934;52.752;6.964;2022-11-04T03:39:10;9.90;99.90
39219;DHT22;24934;52.752;6.964;2022-11-04T03:41:48;9.80;99.90
39219;DHT22;24934;52.752;6.964;2022-11-04T03:44:15;9.80;99.90
39219;DHT22;24934;52.752;6.964;2022-11-04T03:46:41;9.80;99.90
39219;DHT22;24934;52.752;6.964;2022-11-04T03:49:08;9.70;99.90
39219;DHT22;24934;52.752;6.964;2022-11-04T03:51:34;9.70;99.90
39219;DHT22;24934;52.752;6.964;2022-11-04T03:54:00;9.70;99.90
39219;DHT22;24934;52.752;6.964;2022-11-04T03:56:50;9.70;99.90
39219;DHT22;24934;52.752;6.964;2022-11-04T04:02:03;9.60;99.90
39219;DHT22;24934;52.752;6.964;2022-11-04T04:04:57;9.60;99.90
39219;DHT22;24934;52.752;6.964;2022-11-04T04:07:43;9.50;99.90
39219;DHT22;24934;52.752;6.964;2022-11-04T04:10:20;9.50;99.90
39219;DHT22;24934;52.752;6.964;2022-11-04T04:21:08;9.40;99.90
39219;DHT22;24934;52.752;6.964;2022-11-04T04:23:37;9.30;99.90
39219;DHT22;24934;52.752;6.964;2022-11-04T04:26:24;9.30;99.90
39219;DHT22;24934;52.752;6.964;2022-11-04T04:29:09;9.20;99.90
39219;DHT22;24934;52.752;6.964;2022-11-04T04:31:37;9.20;99.90
39219;DHT22;24934;52.752;6.964;2022-11-04T04:34:23;9.20;99.90
39219;DHT22;24934;52.752;6.964;2022-11-04T04:39:54;9.10;99.90
39219;DHT22;24934;52.752;6.964;2022-11-04T04:42:39;9.10;99.90
39219;DHT22;24934;52.752;6.964;2022-11-04T04:45:35;9.10;99.90
39219;DHT22;24934;52.752;6.964;2022-11-04T04:48:02;9.10;99.90
39219;DHT22;24934;52.752;6.964;2022-11-04T04:50:35;9.00;99.90
39219;DHT22;24934;52.752;6.964;2022-11-04T04:53:02;9.00;99.90
39219;DHT22;24934;52.752;6.964;2022-11-04T04:55:29;9.10;99.90
39219;DHT22;24934;52.752;6.964;2022-11-04T04:57:56;9.10;99.90
39219;DHT22;24934;52.752;6.964;2022-11-04T05:00:22;9.00;99.90
39219;DHT22;24934;52.752;6.964;2022-11-04T05:02:48;9.00;99.90
39219;DHT22;24934;52.752;6.964;2022-11-04T05:05:14;9.10;99.90
39219;DHT22;24934;52.752;6.964;2022-11-04T05:07:40;9.10;99.90
39219;DHT22;24934;52.752;6.964;2022-11-04T05:10:08;9.10;99.90
39219;DHT22;24934;52.752;6.964;2022-11-04T05:12:36;9.10;99.90
39219;DHT22;24934;52.752;6.964;2022-11-04T05:15:20;9.20;99.90
39219;DHT22;24934;52.752;6.964;2022-11-04T05:17:46;9.20;99.90
39219;DHT22;24934;52.752;6.964;2022-11-04T05:20:12;9.20;99.90
39219;DHT22;24934;52.752;6.964;2022-11-04T05:22:37;9.20;99.90
39219;DHT22;24934;52.752;6.964;2022-11-04T05:25:03;9.20;99.90
39219;DHT22;24934;52.752;6.964;2022-11-04T05:27:29;9.20;99.90
39219;DHT22;24934;52.752;6.964;2022-11-04T05:29:54;9.10;99.90
39219;DHT22;24934;52.752;6.964;2022-11-04T05:32:20;9.00;99.90
39219;DHT22;24934;52.752;6.964;2022-11-04T05:34:46;9.00;99.90
39219;DHT22;24934;52.752;6.964;2022-11-04T05:37:12;8.90;99.90
39219;DHT22;24934;52.752;6.964;2022-11-04T05:39:37;8.80;99.90
39219;DHT22;24934;52.752;6.964;2022-11-04T05:42:03;8.80;99.90
39219;DHT22;24934;52.752;6.964;2022-11-04T05:44:31;8.70;99.90
39219;DHT22;24934;52.752;6.964;2022-11-04T05:46:56;8.60;99.90
39219;DHT22;24934;52.752;6.964;2022-11-04T05:49:22;8.60;99.90
39219;DHT22;24934;52.752;6.964;2022-11-04T05:51:48;8.50;99.90
39219;DHT22;24934;52.752;6.964;2022-11-04T05:54:13;8.40;99.90
39219;DHT22;24934;52.752;6.964;2022-11-04T05:56:39;8.40;99.90
39219;DHT22;24934;52.752;6.964;2022-11-04T05:59:04;8.30;99.90
39219;DHT22;24934;52.752;6.964;2022-11-04T06:01:35;8.30;99.90
39219;DHT22;24934;52.752;6.964;2022-11-04T06:04:03;8.20;99.90
39219;DHT22;24934;52.752;6.964;2022-11-04T06:06:32;8.20;99.90
39219;DHT22;24934;52.752;6.964;2022-11-04T06:08:59;8.20;99.90
39219;DHT22;24934;52.752;6.964;2022-11-04T06:11:26;8.10;99.90
39219;DHT22;24934;52.752;6.964;2022-11-04T06:13:53;8.00;99.90
39219;DHT22;24934;52.752;6.964;2022-11-04T06:16:19;8.00;99.90
39219;DHT22;24934;52.752;6.964;2022-11-04T06:18:45;7.90;99.90
39219;DHT22;24934;52.752;6.964;2022-11-04T06:23:40;7.90;99.90
39219;DHT22;24934;52.752;6.964;2022-11-04T06:26:07;8.00;99.90
39219;DHT22;24934;52.752;6.964;2022-11-04T06:28:32;8.00;99.90
39219;DHT22;24934;52.752;6.964;2022-11-04T06:31:00;8.00;99.90
39219;DHT22;24934;52.752;6.964;2022-11-04T06:33:27;8.10;99.90
39219;DHT22;24934;52.752;6.964;2022-11-04T06:35:56;8.10;99.90
39219;DHT22;24934;52.752;6.964;2022-11-04T06:38:22;8.20;99.90
39219;DHT22;24934;52.752;6.964;2022-11-04T06:40:47;8.20;99.90
39219;DHT22;24934;52.752;6.964;2022-11-04T06:43:13;8.30;99.90
39219;DHT22;24934;52.752;6.964;2022-11-04T06:45:38;8.30;99.90
39219;DHT22;24934;52.752;6.964;2022-11-04T06:48:04;8.40;99.90
39219;DHT22;24934;52.752;6.964;2022-11-04T06:50:30;8.30;99.90
39219;DHT22;24934;52.752;6.964;2022-11-04T06:52:56;8.40;99.90
39219;DHT22;24934;52.752;6.964;2022-11-04T06:55:21;8.40;99.90
39219;DHT22;24934;52.752;6.964;2022-11-04T06:57:47;8.40;99.90
39219;DHT22;24934;52.752;6.964;2022-11-04T07:00:13;8.40;99.90
39219;DHT22;24934;52.752;6.964;2022-11-04T07:02:38;8.40;99.90
39219;DHT22;24934;52.752;6.964;2022-11-04T07:05:04;8.30;99.90
39219;DHT22;24934;52.752;6.964;2022-11-04T07:07:31;8.30;99.90
39219;DHT22;24934;52.752;6.964;2022-11-04T07:09:56;8.30;99.90
39219;DHT22;24934;52.752;6.964;2022-11-04T07:12:23;8.20;99.90
39219;DHT22;24934;52.752;6.964;2022-11-04T07:14:52;8.20;99.90
39219;DHT22;24934;52.752;6.964;2022-11-04T07:17:19;8.10;99.90
39219;DHT22;24934;52.752;6.964;2022-11-04T07:19:45;8.10;99.90
39219;DHT22;24934;52.752;6.964;2022-11-04T07:22:11;8.10;99.90
39219;DHT22;24934;52.752;6.964;2022-11-04T07:24:36;8.00;99.90
39219;DHT22;24934;52.752;6.964;2022-11-04T07:27:02;8.00;99.90
39219;DHT22;24934;52.752;6.964;2022-11-04T07:29:27;8.10;99.90
39219;DHT22;24934;52.752;6.964;2022-11-04T07:31:53;8.10;99.90
39219;DHT22;24934;52.752;6.964;2022-11-04T07:34:19;8.20;99.90
39219;DHT22;24934;52.752;6.964;2022-11-04T07:36:44;8.30;99.90
39219;DHT22;24934;52.752;6.964;2022-11-04T07:39:10;8.30;99.90
39219;DHT22;24934;52.752;6.964;2022-11-04T07:41:35;8.50;99.90
39219;DHT22;24934;52.752;6.964;2022-11-04T07:44:01;8.70;99.90
39219;DHT22;24934;52.752;6.964;2022-11-04T07:46:29;9.20;99.90
39219;DHT22;24934;52.752;6.964;2022-11-04T07:48:57;9.50;99.90
39219;DHT22;24934;52.752;6.964;2022-11-04T07:51:23;9.80;99.90
39219;DHT22;24934;52.752;6.964;2022-11-04T07:53:49;10.20;99.90
39219;DHT22;24934;52.752;6.964;2022-11-04T07:56:15;10.50;99.90
39219;DHT22;24934;52.752;6.964;2022-11-04T07:58:41;10.50;99.90
39219;DHT22;24934;52.752;6.964;2022-11-04T08:01:19;10.30;99.90
39219;DHT22;24934;52.752;6.964;2022-11-04T08:03:45;10.20;99.90
39219;DHT22;24934;52.752;6.964;2022-11-04T08:06:13;9.90;99.90
39219;DHT22;24934;52.752;6.964;2022-11-04T08:08:39;9.70;99.90
39219;DHT22;24934;52.752;6.964;2022-11-04T08:11:09;9.60;99.90
39219;DHT22;24934;52.752;6.964;2022-11-04T08:13:36;9.50;99.90
39219;DHT22;24934;52.752;6.964;2022-11-04T08:16:04;9.30;99.90
39219;DHT22;24934;52.752;6.964;2022-11-04T08:18:31;9.30;99.90
39219;DHT22;24934;52.752;6.964;2022-11-04T08:20:57;9.30;99.90
39219;DHT22;24934;52.752;6.964;2022-11-04T08:23:23;9.30;99.90
39219;DHT22;24934;52.752;6.964;2022-11-04T08:25:49;9.30;99.90
39219;DHT22;24934;52.752;6.964;2022-11-04T08:28:14;9.30;99.90
39219;DHT22;24934;52.752;6.964;2022-11-04T08:31:08;9.20;99.90
39219;DHT22;24934;52.752;6.964;2022-11-04T08:33:34;9.30;99.90
39219;DHT22;24934;52.752;6.964;2022-11-04T08:38:39;9.70;99.90
39219;DHT22;24934;52.752;6.964;2022-11-04T08:41:06;9.80;99.90
39219;DHT22;24934;52.752;6.964;2022-11-04T08:43:32;9.80;99.90
39219;DHT22;24934;52.752;6.964;2022-11-04T08:45:59;9.70;99.90
39219;DHT22;24934;52.752;6.964;2022-11-04T08:48:25;9.60;99.90
39219;DHT22;24934;52.752;6.964;2022-11-04T08:50:52;9.50;99.90
39219;DHT22;24934;52.752;6.964;2022-11-04T08:53:19;9.60;99.90
39219;DHT22;24934;52.752;6.964;2022-11-04T08:55:45;9.70;99.90
39219;DHT22;24934;52.752;6.964;2022-11-04T08:58:11;9.70;99.90
39219;DHT22;24934;52.752;6.964;2022-11-04T09:00:36;9.70;99.90
39219;DHT22;24934;52.752;6.964;2022-11-04T09:03:02;9.70;99.90
39219;DHT22;24934;52.752;6.964;2022-11-04T09:05:28;9.70;99.90
39219;DHT22;24934;52.752;6.964;2022-11-04T09:07:54;9.80;99.90
39219;DHT22;24934;52.752;6.964;2022-11-04T09:10:20;10.00;99.90
39219;DHT22;24934;52.752;6.964;2022-11-04T09:12:45;10.20;99.90
39219;DHT22;24934;52.752;6.964;2022-11-04T09:15:11;10.30;99.90
39219;DHT22;24934;52.752;6.964;2022-11-04T09:17:37;10.40;99.90
39219;DHT22;24934;52.752;6.964;2022-11-04T09:20:03;10.50;99.90
39219;DHT22;24934;52.752;6.964;2022-11-04T09:22:29;10.50;99.90
39219;DHT22;24934;52.752;6.964;2022-11-04T09:24:56;10.50;99.90
39219;DHT22;24934;52.752;6.964;2022-11-04T09:27:21;10.40;99.90
39219;DHT22;24934;52.752;6.964;2022-11-04T09:29:47;10.30;99.90
39219;DHT22;24934;52.752;6.964;2022-11-04T09:32:12;10.20;99.90
39219;DHT22;24934;52.752;6.964;2022-11-04T09:34:38;10.20;99.90
39219;DHT22;24934;52.752;6.964;2022-11-04T09:37:04;10.20;99.90
39219;DHT22;24934;52.752;6.964;2022-11-04T09:39:30;10.10;99.90
39219;DHT22;24934;52.752;6.964;2022-11-04T09:45:06;10.20;99.90
39219;DHT22;24934;52.752;6.964;2022-11-04T09:47:34;10.20;99.90
39219;DHT22;24934;52.752;6.964;2022-11-04T09:50:02;10.20;99.90
39219;DHT22;24934;52.752;6.964;2022-11-04T09:52:30;10.30;99.90
39219;DHT22;24934;52.752;6.964;2022-11-04T09:57:27;10.40;99.90
39219;DHT22;24934;52.752;6.964;2022-11-04T09:59:53;10.40;99.90
39219;DHT22;24934;52.752;6.964;2022-11-04T10:05:17;10.60;99.90
39219;DHT22;24934;52.752;6.964;2022-11-04T10:08:15;11.00;99.90
39219;DHT22;24934;52.752;6.964;2022-11-04T10:14:14;11.30;99.90
39219;DHT22;24934;52.752;6.964;2022-11-04T10:22:03;11.60;99.90
39219;DHT22;24934;52.752;6.964;2022-11-04T10:25:08;11.60;99.90
39219;DHT22;24934;52.752;6.964;2022-11-04T10:27:37;11.40;99.90
39219;DHT22;24934;52.752;6.964;2022-11-04T10:30:19;11.50;99.90
39219;DHT22;24934;52.752;6.964;2022-11-04T10:33:02;11.60;99.90
39219;DHT22;24934;52.752;6.964;2022-11-04T10:35:48;11.90;99.90
39219;DHT22;24934;52.752;6.964;2022-11-04T10:38:40;12.00;99.90
39219;DHT22;24934;52.752;6.964;2022-11-04T10:41:34;12.20;99.90
39219;DHT22;24934;52.752;6.964;2022-11-04T10:44:06;12.30;99.90
39219;DHT22;24934;52.752;6.964;2022-11-04T10:51:54;11.60;99.90
39219;DHT22;24934;52.752;6.964;2022-11-04T10:54:21;11.40;99.90
39219;DHT22;24934;52.752;6.964;2022-11-04T10:56:50;11.60;99.90
39219;DHT22;24934;52.752;6.964;2022-11-04T10:59:30;11.90;99.90
39219;DHT22;24934;52.752;6.964;2022-11-04T11:02:00;12.20;99.90
39219;DHT22;24934;52.752;6.964;2022-11-04T11:06:55;12.60;99.90
39219;DHT22;24934;52.752;6.964;2022-11-04T11:09:24;12.50;99.90
39219;DHT22;24934;52.752;6.964;2022-11-04T11:11:57;12.30;99.90
39219;DHT22;24934;52.752;6.964;2022-11-04T11:16:52;12.00;99.90
39219;DHT22;24934;52.752;6.964;2022-11-04T11:19:21;12.00;99.90
39219;DHT22;24934;52.752;6.964;2022-11-04T11:21:49;12.20;99.90
39219;DHT22;24934;52.752;6.964;2022-11-04T11:26:47;12.50;99.90
39219;DHT22;24934;52.752;6.964;2022-11-04T11:29:21;12.60;99.90
39219;DHT22;24934;52.752;6.964;2022-11-04T11:31:51;12.40;99.90
39219;DHT22;24934;52.752;6.964;2022-11-04T11:34:31;12.40;99.90
39219;DHT22;24934;52.752;6.964;2022-11-04T11:36:58;12.50;99.90
39219;DHT22;24934;52.752;6.964;2022-11-04T11:39:30;12.70;99.90
39219;DHT22;24934;52.752;6.964;2022-11-04T11:42:13;12.90;99.90
39219;DHT22;24934;52.752;6.964;2022-11-04T11:44:47;13.10;99.90
39219;DHT22;24934;52.752;6.964;2022-11-04T11:47:36;13.10;99.90
39219;DHT22;24934;52.752;6.964;2022-11-04T11:52:39;13.40;99.90
39219;DHT22;24934;52.752;6.964;2022-11-04T12:00:20;14.20;99.90
39219;DHT22;24934;52.752;6.964;2022-11-04T12:03:04;14.10;99.90
39219;DHT22;24934;52.752;6.964;2022-11-04T12:14:12;13.80;99.90
39219;DHT22;24934;52.752;6.964;2022-11-04T12:17:16;13.80;99.90
39219;DHT22;24934;52.752;6.964;2022-11-04T12:20:02;13.90;99.90
39219;DHT22;24934;52.752;6.964;2022-11-04T12:22:36;14.10;99.90
39219;DHT22;24934;52.752;6.964;2022-11-04T12:25:22;14.30;99.90
39219;DHT22;24934;52.752;6.964;2022-11-04T12:31:14;14.80;99.90
39219;DHT22;24934;52.752;6.964;2022-11-04T12:42:08;14.90;99.90
39219;DHT22;24934;52.752;6.964;2022-11-04T12:50:05;14.70;99.90
39219;DHT22;24934;52.752;6.964;2022-11-04T12:58:17;14.90;99.90
39219;DHT22;24934;52.752;6.964;2022-11-04T13:00:53;15.00;99.90
39219;DHT22;24934;52.752;6.964;2022-11-04T13:09:28;15.30;99.90
39219;DHT22;24934;52.752;6.964;2022-11-04T13:12:10;15.50;99.90
39219;DHT22;24934;52.752;6.964;2022-11-04T13:14:46;15.60;99.90
39219;DHT22;24934;52.752;6.964;2022-11-04T13:17:17;15.70;99.90
39219;DHT22;24934;52.752;6.964;2022-11-04T13:19:55;15.70;99.90
39219;DHT22;24934;52.752;6.964;2022-11-04T13:22:44;15.60;99.90
39219;DHT22;24934;52.752;6.964;2022-11-04T13:27:45;15.00;99.90
39219;DHT22;24934;52.752;6.964;2022-11-04T13:36:21;13.50;99.90
39219;DHT22;24934;52.752;6.964;2022-11-04T13:42:28;12.60;99.90
39219;DHT22;24934;52.752;6.964;2022-11-04T13:44:57;12.40;99.90
39219;DHT22;24934;52.752;6.964;2022-11-04T13:47:49;12.20;99.90
39219;DHT22;24934;52.752;6.964;2022-11-04T13:50:44;11.80;99.90
39219;DHT22;24934;52.752;6.964;2022-11-04T13:53:18;11.40;99.90
39219;DHT22;24934;52.752;6.964;2022-11-04T13:56:01;11.10;99.90
39219;DHT22;24934;52.752;6.964;2022-11-04T13:58:27;11.00;99.90
39219;DHT22;24934;52.752;6.964;2022-11-04T14:01:30;10.90;99.90
39219;DHT22;24934;52.752;6.964;2022-11-04T14:06:50;10.60;99.90
39219;DHT22;24934;52.752;6.964;2022-11-04T14:09:33;10.50;99.90
39219;DHT22;24934;52.752;6.964;2022-11-04T14:14:46;10.40;99.90
39219;DHT22;24934;52.752;6.964;2022-11-04T14:20:08;10.40;99.90
39219;DHT22;24934;52.752;6.964;2022-11-04T14:30:48;10.30;99.90
39219;DHT22;24934;52.752;6.964;2022-11-04T14:36:15;10.30;99.90
39219;DHT22;24934;52.752;6.964;2022-11-04T14:38:42;10.30;99.90
39219;DHT22;24934;52.752;6.964;2022-11-04T14:41:29;10.20;99.90
39219;DHT22;24934;52.752;6.964;2022-11-04T14:43:58;10.20;99.90
39219;DHT22;24934;52.752;6.964;2022-11-04T14:46:27;10.10;99.90
39219;DHT22;24934;52.752;6.964;2022-11-04T14:48:55;10.10;99.90
39219;DHT22;24934;52.752;6.964;2022-11-04T14:51:27;10.10;99.90
39219;DHT22;24934;52.752;6.964;2022-11-04T14:54:20;10.00;99.90
39219;DHT22;24934;52.752;6.964;2022-11-04T14:56:47;10.00;99.90
39219;DHT22;24934;52.752;6.964;2022-11-04T14:59:23;10.00;99.90
39219;DHT22;24934;52.752;6.964;2022-11-04T15:01:52;9.90;99.90
39219;DHT22;24934;52.752;6.964;2022-11-04T15:06:55;9.70;99.90
39219;DHT22;24934;52.752;6.964;2022-11-04T15:12:16;9.60;99.90
39219;DHT22;24934;52.752;6.964;2022-11-04T15:15:24;9.60;99.90
39219;DHT22;24934;52.752;6.964;2022-11-04T15:17:52;9.40;99.90
39219;DHT22;24934;52.752;6.964;2022-11-04T15:20:23;9.40;99.90
39219;DHT22;24934;52.752;6.964;2022-11-04T15:22:49;9.30;99.90
39219;DHT22;24934;52.752;6.964;2022-11-04T15:25:15;9.20;99.90
39219;DHT22;24934;52.752;6.964;2022-11-04T15:27:41;9.10;99.90
39219;DHT22;24934;52.752;6.964;2022-11-04T15:30:22;9.00;99.90
39219;DHT22;24934;52.752;6.964;2022-11-04T15:32:56;8.90;99.90
39219;DHT22;24934;52.752;6.964;2022-11-04T15:35:22;8.80;99.90
39219;DHT22;24934;52.752;6.964;2022-11-04T15:37:49;8.70;99.90
39219;DHT22;24934;52.752;6.964;2022-11-04T15:40:16;8.70;99.90
39219;DHT22;24934;52.752;6.964;2022-11-04T15:42:43;8.50;99.90
39219;DHT22;24934;52.752;6.964;2022-11-04T15:48:25;8.40;99.90
39219;DHT22;24934;52.752;6.964;2022-11-04T15:51:22;8.30;99.90
39219;DHT22;24934;52.752;6.964;2022-11-04T15:53:53;8.20;99.90
39219;DHT22;24934;52.752;6.964;2022-11-04T15:56:30;8.20;99.90
39219;DHT22;24934;52.752;6.964;2022-11-04T15:58:57;8.20;99.90
39219;DHT22;24934;52.752;6.964;2022-11-04T16:01:23;8.10;99.90
39219;DHT22;24934;52.752;6.964;2022-11-04T16:03:59;8.10;99.90
39219;DHT22;24934;52.752;6.964;2022-11-04T16:06:33;8.10;99.90
39219;DHT22;24934;52.752;6.964;2022-11-04T16:09:20;8.00;99.90
39219;DHT22;24934;52.752;6.964;2022-11-04T16:12:06;8.00;99.90
39219;DHT22;24934;52.752;6.964;2022-11-04T16:14:32;8.00;99.90
39219;DHT22;24934;52.752;6.964;2022-11-04T16:16:57;8.00;99.90
39219;DHT22;24934;52.752;6.964;2022-11-04T16:19:28;8.00;99.90
39219;DHT22;24934;52.752;6.964;2022-11-04T16:21:59;7.90;99.90
39219;DHT22;24934;52.752;6.964;2022-11-04T16:24:28;7.90;99.90
39219;DHT22;24934;52.752;6.964;2022-11-04T16:26:55;7.90;99.90
39219;DHT22;24934;52.752;6.964;2022-11-04T16:29:24;8.00;99.90
39219;DHT22;24934;52.752;6.964;2022-11-04T16:34:51;7.90;99.90
39219;DHT22;24934;52.752;6.964;2022-11-04T16:37:17;7.90;99.90
39219;DHT22;24934;52.752;6.964;2022-11-04T16:39:44;7.90;99.90
39219;DHT22;24934;52.752;6.964;2022-11-04T16:42:11;7.90;99.90
39219;DHT22;24934;52.752;6.964;2022-11-04T16:44:38;7.80;99.90
39219;DHT22;24934;52.752;6.964;2022-11-04T16:47:04;7.80;99.90
39219;DHT22;24934;52.752;6.964;2022-11-04T16:49:30;7.80;99.90
39219;DHT22;24934;52.752;6.964;2022-11-04T16:52:01;7.80;99.90
39219;DHT22;24934;52.752;6.964;2022-11-04T16:54:29;7.70;99.90
39219;DHT22;24934;52.752;6.964;2022-11-04T16:56:55;7.80;99.90
39219;DHT22;24934;52.752;6.964;2022-11-04T16:59:21;7.80;99.90
39219;DHT22;24934;52.752;6.964;2022-11-04T17:01:47;7.80;99.90
39219;DHT22;24934;52.752;6.964;2022-11-04T17:04:13;7.80;99.90
39219;DHT22;24934;52.752;6.964;2022-11-04T17:06:39;7.80;99.90
39219;DHT22;24934;52.752;6.964;2022-11-04T17:09:21;7.80;99.90
39219;DHT22;24934;52.752;6.964;2022-11-04T17:11:48;7.70;99.90
39219;DHT22;24934;52.752;6.964;2022-11-04T17:14:14;7.80;99.90
39219;DHT22;24934;52.752;6.964;2022-11-04T17:16:41;7.80;99.90
39219;DHT22;24934;52.752;6.964;2022-11-04T17:19:15;7.70;99.90
39219;DHT22;24934;52.752;6.964;2022-11-04T17:21:42;7.70;99.90
39219;DHT22;24934;52.752;6.964;2022-11-04T17:24:09;7.70;99.90
39219;DHT22;24934;52.752;6.964;2022-11-04T17:26:35;7.70;99.90
39219;DHT22;24934;52.752;6.964;2022-11-04T17:29:00;7.70;99.90
39219;DHT22;24934;52.752;6.964;2022-11-04T17:31:26;7.60;99.90
39219;DHT22;24934;52.752;6.964;2022-11-04T17:33:52;7.60;99.90
39219;DHT22;24934;52.752;6.964;2022-11-04T17:36:19;7.60;99.90
39219;DHT22;24934;52.752;6.964;2022-11-04T17:38:45;7.50;99.90
39219;DHT22;24934;52.752;6.964;2022-11-04T17:41:11;7.50;99.90
39219;DHT22;24934;52.752;6.964;2022-11-04T17:43:55;7.50;99.90
39219;DHT22;24934;52.752;6.964;2022-11-04T17:46:28;7.50;99.90
39219;DHT22;24934;52.752;6.964;2022-11-04T17:49:13;7.50;99.90
39219;DHT22;24934;52.752;6.964;2022-11-04T17:51:41;7.40;99.90
39219;DHT22;24934;52.752;6.964;2022-11-04T17:54:07;7.40;99.90
39219;DHT22;24934;52.752;6.964;2022-11-04T17:56:33;7.30;99.90
39219;DHT22;24934;52.752;6.964;2022-11-04T17:59:00;7.20;99.90
39219;DHT22;24934;52.752;6.964;2022-11-04T18:01:26;7.20;99.90
39219;DHT22;24934;52.752;6.964;2022-11-04T18:03:53;7.20;99.90
39219;DHT22;24934;52.752;6.964;2022-11-04T18:06:20;7.20;99.90
39219;DHT22;24934;52.752;6.964;2022-11-04T18:08:46;7.10;99.90
39219;DHT22;24934;52.752;6.964;2022-11-04T18:11:12;7.10;99.90
39219;DHT22;24934;52.752;6.964;2022-11-04T18:13:58;7.10;99.90
39219;DHT22;24934;52.752;6.964;2022-11-04T18:16:23;7.10;99.90
39219;DHT22;24934;52.752;6.964;2022-11-04T18:18:49;7.10;99.90
39219;DHT22;24934;52.752;6.964;2022-11-04T18:21:15;7.10;99.90
39219;DHT22;24934;52.752;6.964;2022-11-04T18:23:40;7.10;99.90
39219;DHT22;24934;52.752;6.964;2022-11-04T18:26:10;7.20;99.90
39219;DHT22;24934;52.752;6.964;2022-11-04T18:28:36;7.20;99.90
39219;DHT22;24934;52.752;6.964;2022-11-04T18:31:09;7.10;99.90
39219;DHT22;24934;52.752;6.964;2022-11-04T18:33:36;7.10;99.90
39219;DHT22;24934;52.752;6.964;2022-11-04T18:36:03;7.00;99.90
39219;DHT22;24934;52.752;6.964;2022-11-04T18:38:30;7.00;99.90